Time;durP1;ratioP1;P1;durP2;ratioP2;P2;SDS_P1;SDS_P2;PMS_P1;PMS_P2;Temp;Humidity;BMP_temperature;BMP_pressure;BME280_temperature;BME280_humidity;BME280_pressure;Samples;Min_cycle;Max_cycle;Signal;HPM_P1;HPM_P2
2022/11/04 00:00:47;;;;;;;13.90;6.85;;;6.80;99.90;;;;;;5084382;28;20469;-66
2022/11/04 00:03:14;;;;;;;15.85;7.57;;;6.80;99.90;;;;;;5086306;28;20077;-65
2022/11/04 00:05:41;;;;;;;11.98;5.63;;;6.80;99.90;;;;;;5081829;28;20056;-68
2022/11/04 00:08:22;;;;;;;9.55;5.10;;;6.80;99.90;;;;;;5081533;28;20105;-69
2022/11/04 00:13:43;;;;;;;10.45;6.57;;;6.80;99.90;;;;;;5082612;28;20425;-65
2022/11/04 00:18:58;;;;;;;13.85;5.50;;;6.80;99.90;;;;;;5083218;28;20048;-67
2022/11/04 00:29:44;;;;;;;10.85;4.40;;;6.80;99.90;;;;;;5079020;28;20045;-65
2022/11/04 00:34:56;;;;;;;11.30;6.53;;;6.80;99.90;;;;;;5076535;28;20041;-65
2022/11/04 00:37:23;;;;;;;9.65;4.80;;;6.80;99.90;;;;;;5083112;28;20055;-66
2022/11/04 00:39:50;;;;;;;14.70;5.75;;;6.80;99.90;;;;;;5078281;28;20059;-66
2022/11/04 00:42:17;;;;;;;16.50;6.10;;;6.80;99.90;;;;;;5081716;28;20146;-65
2022/11/04 00:44:43;;;;;;;17.90;8.32;;;6.80;99.90;;;;;;5084093;28;20130;-73
2022/11/04 00:47:10;;;;;;;15.80;5.88;;;6.80;99.90;;;;;;5079121;28;20139;-67
2022/11/04 00:49:38;;;;;;;17.98;5.53;;;6.70;99.90;;;;;;5082217;28;20044;-73
2022/11/04 00:52:04;;;;;;;16.98;5.68;;;6.70;99.90;;;;;;5075865;28;20136;-69
2022/11/04 00:54:31;;;;;;;13.13;5.55;;;6.70;99.90;;;;;;5077724;28;20110;-66
2022/11/04 00:56:58;;;;;;;20.65;5.60;;;6.70;99.90;;;;;;5084829;28;20048;-65
2022/11/04 00:59:25;;;;;;;10.95;5.40;;;6.70;99.90;;;;;;5080204;28;20048;-69
2022/11/04 01:01:52;;;;;;;12.57;6.18;;;6.70;99.90;;;;;;5081604;28;20127;-65
2022/11/04 01:04:19;;;;;;;12.65;5.18;;;6.70;99.90;;;;;;5080532;28;20083;-67
2022/11/04 01:06:46;;;;;;;8.68;5.00;;;6.70;99.90;;;;;;5082204;28;20048;-71
2022/11/04 01:09:13;;;;;;;20.08;7.18;;;6.70;99.90;;;;;;5079672;28;20043;-66
2022/11/04 01:11:40;;;;;;;14.18;5.20;;;6.70;99.90;;;;;;5079994;28;20040;-66
2022/11/04 01:14:08;;;;;;;11.63;4.97;;;6.70;99.90;;;;;;5077779;28;20132;-72
2022/11/04 01:16:35;;;;;;;13.98;5.38;;;6.70;99.90;;;;;;5077262;28;20051;-67
2022/11/04 01:19:03;;;;;;;8.88;5.40;;;6.60;99.90;;;;;;5079697;28;21265;-68
2022/11/04 01:21:30;;;;;;;12.68;4.90;;;6.60;99.90;;;;;;5084997;28;20043;-70
2022/11/04 01:23:58;;;;;;;12.10;5.63;;;6.60;99.90;;;;;;5083515;28;20050;-67
2022/11/04 01:26:26;;;;;;;13.02;5.85;;;6.60;99.90;;;;;;5080684;28;20052;-66
2022/11/04 01:28:55;;;;;;;10.10;5.15;;;6.70;99.90;;;;;;5078982;28;20056;-72
2022/11/04 01:31:24;;;;;;;12.00;5.50;;;6.70;99.90;;;;;;5064250;28;20173;-66
2022/11/04 01:33:53;;;;;;;10.07;5.50;;;6.80;99.90;;;;;;5083709;28;20087;-71
2022/11/04 01:36:21;;;;;;;12.25;4.32;;;6.80;99.90;;;;;;5079065;28;20056;-72
2022/11/04 01:38:48;;;;;;;13.10;5.00;;;6.90;99.90;;;;;;5080385;28;20105;-66
2022/11/04 01:41:21;;;;;;;8.70;4.72;;;6.80;99.90;;;;;;5084733;28;20044;-67
2022/11/04 01:43:55;;;;;;;12.00;5.28;;;6.80;99.90;;;;;;5081059;28;20076;-66
2022/11/04 01:46:36;;;;;;;11.57;5.88;;;6.80;99.90;;;;;;5082017;28;20044;-65
2022/11/04 01:49:10;;;;;;;13.40;4.80;;;6.80;99.90;;;;;;5087005;28;20170;-70
2022/11/04 01:51:39;;;;;;;15.18;5.82;;;6.80;99.90;;;;;;5085383;28;20478;-67
2022/11/04 01:54:09;;;;;;;11.32;5.28;;;6.80;99.90;;;;;;5061567;28;20052;-68
2022/11/04 01:56:39;;;;;;;13.20;5.32;;;6.70;99.90;;;;;;5082031;28;20522;-74
2022/11/04 01:59:12;;;;;;;11.40;5.10;;;6.70;99.90;;;;;;5079836;28;20509;-74
2022/11/04 02:01:39;;;;;;;12.73;5.20;;;6.70;99.90;;;;;;5080693;28;20052;-66
2022/11/04 02:04:39;;;;;;;8.15;5.30;;;6.70;99.90;;;;;;5080329;28;20485;-68
2022/11/04 02:07:05;;;;;;;9.98;4.53;;;6.70;99.90;;;;;;5080917;28;20054;-65
2022/11/04 02:09:35;;;;;;;8.57;5.43;;;6.70;99.90;;;;;;5073516;28;20413;-65
2022/11/04 02:14:48;;;;;;;11.68;5.75;;;6.70;99.90;;;;;;5080019;28;20080;-65
2022/11/04 02:17:18;;;;;;;10.63;5.00;;;6.60;99.90;;;;;;5083180;28;20082;-69
2022/11/04 02:20:13;;;;;;;16.27;4.32;;;6.60;99.90;;;;;;5080380;28;20040;-65
2022/11/04 02:23:26;;;;;;;13.18;5.07;;;6.50;99.90;;;;;;5086497;28;20040;-65
2022/11/04 02:26:24;;;;;;;9.70;4.50;;;6.50;99.90;;;;;;5083690;28;20048;-65
2022/11/04 02:29:38;;;;;;;15.13;5.88;;;6.50;99.90;;;;;;5083258;28;20048;-65
2022/11/04 02:32:32;;;;;;;11.07;5.20;;;6.40;99.90;;;;;;5078470;28;20134;-66
2022/11/04 02:35:10;;;;;;;7.80;5.28;;;6.40;99.90;;;;;;5076068;28;20075;-72
2022/11/04 02:38:09;;;;;;;9.50;4.22;;;6.50;99.90;;;;;;5072628;28;20079;-67
2022/11/04 02:41:03;;;;;;;10.63;5.35;;;6.40;99.90;;;;;;5071553;28;20044;-68
2022/11/04 02:43:49;;;;;;;10.02;4.72;;;6.40;99.90;;;;;;5073054;28;20079;-69
2022/11/04 02:46:23;;;;;;;13.02;5.95;;;6.30;99.90;;;;;;5071271;28;20135;-66
2022/11/04 02:49:06;;;;;;;7.13;4.18;;;6.30;99.90;;;;;;5070774;28;20055;-71
2022/11/04 02:51:46;;;;;;;13.63;4.47;;;6.30;99.90;;;;;;5069065;28;20127;-71
2022/11/04 02:54:17;;;;;;;8.73;4.95;;;6.30;99.90;;;;;;5075837;28;20881;-69
2022/11/04 02:56:48;;;;;;;14.18;6.07;;;6.20;99.90;;;;;;5075489;28;20050;-69
2022/11/04 02:59:34;;;;;;;12.52;4.57;;;6.20;99.90;;;;;;5072523;28;20048;-73
2022/11/04 03:02:06;;;;;;;9.50;4.93;;;6.20;99.90;;;;;;5072157;28;20039;-71
2022/11/04 03:04:37;;;;;;;13.82;5.38;;;6.20;99.90;;;;;;5073379;28;20067;-72
2022/11/04 03:07:08;;;;;;;8.25;4.90;;;6.20;99.90;;;;;;5077144;28;20055;-65
2022/11/04 03:09:45;;;;;;;9.63;5.75;;;6.20;99.90;;;;;;5077838;28;20135;-71
2022/11/04 03:12:15;;;;;;;13.15;5.93;;;6.20;99.90;;;;;;5069133;28;20138;-68
2022/11/04 03:14:49;;;;;;;14.05;4.68;;;6.20;99.90;;;;;;5074015;28;20058;-68
2022/11/04 03:17:39;;;;;;;12.90;5.68;;;6.20;99.90;;;;;;5074296;28;20094;-70
2022/11/04 03:20:13;;;;;;;11.07;5.88;;;6.20;99.90;;;;;;5040006;28;20055;-70
2022/11/04 03:22:40;;;;;;;11.82;5.75;;;6.10;99.90;;;;;;5072952;28;20048;-69
2022/11/04 03:25:08;;;;;;;18.73;6.03;;;6.10;99.90;;;;;;5072415;28;20048;-70
2022/11/04 03:27:46;;;;;;;6.60;4.55;;;6.10;99.90;;;;;;5052564;28;20052;-70
2022/11/04 03:30:18;;;;;;;9.25;5.10;;;6.10;99.90;;;;;;5072029;28;20066;-74
2022/11/04 03:32:54;;;;;;;8.82;4.53;;;6.10;99.90;;;;;;5072785;28;20128;-73
2022/11/04 03:35:21;;;;;;;12.13;5.03;;;6.10;99.90;;;;;;5072621;28;20048;-69
2022/11/04 03:37:48;;;;;;;12.50;4.93;;;6.10;99.90;;;;;;5075549;28;20100;-67
2022/11/04 03:40:19;;;;;;;10.45;5.15;;;6.10;99.90;;;;;;5069663;28;20071;-66
2022/11/04 03:42:58;;;;;;;;;;;6.10;99.90;;;;;;5075954;28;20068;-65
2022/11/04 03:45:25;;;;;;;11.48;4.97;;;6.10;99.90;;;;;;5073038;28;19935;-73
2022/11/04 03:47:52;;;;;;;14.57;5.05;;;6.10;99.90;;;;;;5075799;28;20557;-70
2022/11/04 03:50:34;;;;;;;9.65;4.97;;;6.10;99.90;;;;;;5069362;28;20192;-69
2022/11/04 03:53:01;;;;;;;11.93;4.85;;;6.10;99.90;;;;;;5066503;28;20051;-67
2022/11/04 03:55:50;;;;;;;12.30;5.47;;;6.10;99.90;;;;;;5077607;28;20467;-70
2022/11/04 03:58:36;;;;;;;7.93;4.18;;;6.10;99.90;;;;;;5073455;28;20058;-68
2022/11/04 04:01:11;;;;;;;13.88;4.55;;;6.10;99.90;;;;;;5074466;28;20076;-68
2022/11/04 04:04:07;;;;;;;14.75;5.18;;;6.10;99.90;;;;;;5074503;28;20147;-70
2022/11/04 04:06:35;;;;;;;11.35;3.78;;;6.10;99.90;;;;;;5059789;28;20833;-72
2022/11/04 04:09:18;;;;;;;10.68;4.60;;;6.10;99.90;;;;;;5078646;28;20490;-70
2022/11/04 04:12:13;;;;;;;7.75;4.30;;;6.10;99.90;;;;;;5074110;28;20487;-69
2022/11/04 04:14:49;;;;;;;11.65;4.85;;;6.10;99.90;;;;;;5076780;28;20070;-71
2022/11/04 04:17:28;;;;;;;17.42;5.00;;;6.10;99.90;;;;;;5076201;28;20063;-67
2022/11/04 04:20:02;;;;;;;10.07;4.30;;;6.10;99.90;;;;;;5076159;28;20579;-67
2022/11/04 04:27:29;;;;;;;11.80;4.50;;;6.10;99.90;;;;;;5076626;28;20386;-67
2022/11/04 04:28:45;;;;;;;9.63;4.60;;;6.10;99.90;;;;;;5074751;28;20054;-68
2022/11/04 04:31:48;;;;;;;10.68;5.20;;;6.10;99.90;;;;;;5077541;28;20144;-68
2022/11/04 04:34:05;;;;;;;8.15;4.25;;;6.10;99.90;;;;;;5075247;28;20056;-73
2022/11/04 04:36:42;;;;;;;12.85;4.63;;;6.10;99.90;;;;;;5073769;28;20387;-73
2022/11/04 04:45:02;;;;;;;10.00;4.57;;;6.10;99.90;;;;;;5075221;28;20849;-68
2022/11/04 04:47:35;;;;;;;6.40;3.85;;;6.10;99.90;;;;;;5074282;28;20044;-68
2022/11/04 04:50:02;;;;;;;9.73;4.97;;;6.20;99.90;;;;;;5072238;28;20062;-70
2022/11/04 04:52:33;;;;;;;12.23;3.83;;;6.20;99.90;;;;;;5074488;28;20105;-68
2022/11/04 04:55:00;;;;;;;9.45;4.30;;;6.20;99.90;;;;;;5075140;28;20878;-71
2022/11/04 04:57:27;;;;;;;20.15;7.50;;;6.20;99.90;;;;;;5077771;28;20414;-68
2022/11/04 04:59:54;;;;;;;16.92;4.28;;;6.10;99.90;;;;;;5075764;28;20044;-74
2022/11/04 05:02:20;;;;;;;8.40;4.07;;;6.10;99.90;;;;;;5077638;28;20450;-70
2022/11/04 05:04:48;;;;;;;10.23;4.53;;;6.10;99.90;;;;;;5077595;28;20048;-69
2022/11/04 05:07:15;;;;;;;10.32;4.10;;;6.10;99.90;;;;;;5051901;28;21238;-67
2022/11/04 05:09:42;;;;;;;9.18;3.58;;;6.10;99.90;;;;;;5063062;28;20048;-72
2022/11/04 05:12:09;;;;;;;9.57;3.88;;;6.20;99.90;;;;;;5060366;28;20450;-68
2022/11/04 05:14:36;;;;;;;19.20;3.92;;;6.20;99.90;;;;;;5067594;28;20634;-70
2022/11/04 05:17:03;;;;;;;11.65;4.35;;;6.20;99.90;;;;;;5073905;28;20048;-73
2022/11/04 05:19:30;;;;;;;10.43;3.92;;;6.20;99.90;;;;;;5067232;28;20092;-72
2022/11/04 05:21:57;;;;;;;13.30;4.65;;;6.20;99.90;;;;;;5076475;28;20107;-69
2022/11/04 05:24:24;;;;;;;9.68;4.00;;;6.20;99.90;;;;;;5072039;28;20078;-73
2022/11/04 05:26:51;;;;;;;9.98;4.32;;;6.20;99.90;;;;;;5076213;28;20036;-66
2022/11/04 05:29:18;;;;;;;6.18;3.58;;;6.20;99.90;;;;;;5075477;28;20128;-69
2022/11/04 05:31:45;;;;;;;9.27;3.67;;;6.20;99.90;;;;;;5074703;28;20071;-72
2022/11/04 05:34:13;;;;;;;7.45;3.35;;;6.20;99.90;;;;;;5077290;28;21053;-73
2022/11/04 05:36:40;;;;;;;9.38;4.70;;;6.20;99.90;;;;;;5073466;28;20139;-70
2022/11/04 05:39:09;;;;;;;8.18;5.15;;;6.20;99.90;;;;;;5075698;28;20048;-71
2022/11/04 05:41:36;;;;;;;23.50;5.40;;;6.20;99.90;;;;;;5075305;28;20044;-70
2022/11/04 05:44:04;;;;;;;17.42;5.32;;;6.20;99.90;;;;;;5076251;28;20059;-69
2022/11/04 05:46:31;;;;;;;11.73;3.60;;;6.20;99.90;;;;;;5070780;28;21344;-68
2022/11/04 05:48:58;;;;;;;8.10;3.92;;;6.10;99.90;;;;;;5073057;28;20056;-66
2022/11/04 05:51:27;;;;;;;9.93;3.53;;;6.10;99.90;;;;;;5078499;28;20058;-70
2022/11/04 05:53:54;;;;;;;8.00;4.20;;;6.10;99.90;;;;;;5076716;28;20048;-66
2022/11/04 05:56:21;;;;;;;13.60;3.33;;;6.10;99.90;;;;;;5075780;28;20591;-65
2022/11/04 05:58:48;;;;;;;12.38;3.75;;;6.10;99.90;;;;;;5082011;28;20374;-71
2022/11/04 06:01:40;;;;;;;12.35;3.83;;;6.10;99.90;;;;;;5078708;28;20058;-65
2022/11/04 06:04:13;;;;;;;7.35;2.65;;;6.20;99.90;;;;;;5077422;28;20043;-67
2022/11/04 06:06:40;;;;;;;8.85;3.60;;;6.20;99.90;;;;;;5077530;28;20166;-69
2022/11/04 06:09:08;;;;;;;7.30;3.35;;;6.20;99.90;;;;;;5079317;28;20036;-67
2022/11/04 06:11:36;;;;;;;10.80;4.15;;;6.20;99.90;;;;;;5077776;28;20134;-68
2022/11/04 06:14:03;;;;;;;11.02;3.63;;;6.20;99.90;;;;;;5076607;28;20442;-72
2022/11/04 06:16:30;;;;;;;11.02;3.72;;;6.30;99.90;;;;;;5075920;28;20120;-68
2022/11/04 06:18:57;;;;;;;7.47;3.50;;;6.30;99.90;;;;;;5078866;28;20068;-68
2022/11/04 06:21:32;;;;;;;11.93;4.28;;;6.30;99.90;;;;;;5078058;28;20036;-69
2022/11/04 06:23:59;;;;;;;9.45;3.53;;;6.30;99.90;;;;;;5076747;28;20066;-65
2022/11/04 06:26:28;;;;;;;10.05;4.95;;;6.30;99.90;;;;;;5065936;28;20056;-71
2022/11/04 06:28:55;;;;;;;15.90;4.55;;;6.30;99.90;;;;;;5062440;28;20139;-69
2022/11/04 06:31:22;;;;;;;10.70;4.10;;;6.30;99.90;;;;;;5060755;28;20224;-65
2022/11/04 06:33:49;;;;;;;20.95;4.22;;;6.30;99.90;;;;;;5060785;28;20058;-69
2022/11/04 06:36:16;;;;;;;13.30;3.00;;;6.40;99.90;;;;;;5058406;28;21948;-69
2022/11/04 06:38:43;;;;;;;14.88;5.78;;;6.50;99.90;;;;;;5062274;28;20179;-66
2022/11/04 06:41:14;;;;;;;8.13;3.20;;;6.50;99.90;;;;;;5061818;28;20517;-70
2022/11/04 06:43:40;;;;;;;;;;;6.60;99.90;;;;;;5061126;28;20055;-67
2022/11/04 06:46:24;;;;;;;7.55;3.40;;;6.60;99.90;;;;;;5060577;28;20046;-68
2022/11/04 06:48:51;;;;;;;11.05;5.38;;;6.60;99.90;;;;;;5060074;28;20053;-71
2022/11/04 06:51:18;;;;;;;10.02;3.47;;;6.60;99.90;;;;;;5059595;28;20080;-73
2022/11/04 06:53:45;;;;;;;10.77;4.68;;;6.70;99.90;;;;;;5059154;28;20167;-71
2022/11/04 06:56:12;;;;;;;11.25;5.45;;;6.70;99.90;;;;;;5059975;28;20047;-72
2022/11/04 06:58:39;;;;;;;15.07;3.88;;;6.80;99.90;;;;;;5059615;28;20546;-66
2022/11/04 07:01:06;;;;;;;15.77;4.32;;;6.80;99.90;;;;;;5043650;28;20059;-73
2022/11/04 07:03:43;;;;;;;12.30;3.75;;;6.90;99.90;;;;;;5064569;28;20051;-67
2022/11/04 07:06:10;;;;;;;9.25;3.55;;;6.90;99.90;;;;;;5058944;28;20264;-65
2022/11/04 07:08:37;;;;;;;7.45;3.08;;;7.00;99.90;;;;;;5061147;28;20139;-67
2022/11/04 07:11:04;;;;;;;9.10;3.47;;;7.00;99.90;;;;;;5059503;28;20363;-75
2022/11/04 07:13:31;;;;;;;11.85;3.83;;;7.10;99.90;;;;;;5061883;28;20048;-70
2022/11/04 07:15:58;;;;;;;13.52;3.72;;;7.10;99.90;;;;;;5060462;28;20065;-69
2022/11/04 07:18:25;;;;;;;9.82;4.22;;;7.20;99.90;;;;;;5058892;28;20083;-64
2022/11/04 07:20:52;;;;;;;12.85;4.50;;;7.20;99.90;;;;;;5062692;28;20051;-64
2022/11/04 07:23:20;;;;;;;13.55;3.65;;;7.20;99.90;;;;;;5061508;28;20088;-69
2022/11/04 07:25:47;;;;;;;13.07;4.50;;;7.30;99.90;;;;;;5072519;28;20048;-65
2022/11/04 07:28:14;;;;;;;12.60;4.63;;;7.30;99.90;;;;;;5076560;28;20438;-67
2022/11/04 07:30:41;;;;;;;18.50;2.95;;;7.40;99.90;;;;;;5078531;28;20058;-71
2022/11/04 07:33:08;;;;;;;8.77;3.10;;;7.40;99.90;;;;;;5076944;28;20051;-74
2022/11/04 07:35:36;;;;;;;7.68;2.97;;;7.40;99.90;;;;;;5074935;28;20709;-68
2022/11/04 07:38:03;;;;;;;8.13;3.22;;;7.50;99.90;;;;;;5071940;28;20058;-72
2022/11/04 07:40:33;;;;;;;8.15;4.63;;;7.50;99.90;;;;;;5077241;28;20128;-68
2022/11/04 07:43:00;;;;;;;13.45;2.90;;;7.60;99.90;;;;;;5079488;28;20047;-69
2022/11/04 07:45:35;;;;;;;6.70;2.78;;;7.70;99.90;;;;;;5074059;28;20060;-65
2022/11/04 07:48:02;;;;;;;12.80;2.72;;;7.80;99.90;;;;;;5079553;28;20051;-66
2022/11/04 07:50:29;;;;;;;8.45;3.55;;;7.80;99.90;;;;;;5075165;28;20048;-72
2022/11/04 07:52:58;;;;;;;6.45;3.13;;;7.90;99.90;;;;;;5077987;28;20055;-70
2022/11/04 07:55:25;;;;;;;6.80;3.63;;;8.00;99.90;;;;;;5076778;28;20048;-67
2022/11/04 07:57:53;;;;;;;15.80;4.55;;;8.10;99.90;;;;;;5077282;28;20053;-68
2022/11/04 08:00:20;;;;;;;7.20;4.03;;;8.10;99.90;;;;;;5072443;28;20054;-67
2022/11/04 08:02:47;;;;;;;14.48;3.03;;;8.20;99.90;;;;;;5077811;28;20036;-67
2022/11/04 08:05:15;;;;;;;8.18;2.97;;;8.20;99.90;;;;;;5075334;28;20048;-76
2022/11/04 08:07:42;;;;;;;9.73;3.40;;;8.30;99.90;;;;;;5075037;28;20090;-68
2022/11/04 08:10:09;;;;;;;7.78;2.70;;;8.40;99.90;;;;;;5074081;28;20052;-72
2022/11/04 08:12:37;;;;;;;12.77;3.97;;;8.40;99.90;;;;;;5074921;28;20772;-73
2022/11/04 08:15:04;;;;;;;4.32;2.92;;;8.50;99.90;;;;;;5075670;28;20068;-71
2022/11/04 08:17:31;;;;;;;10.18;3.83;;;8.50;99.90;;;;;;5077888;28;20040;-70
2022/11/04 08:19:58;;;;;;;11.75;3.33;;;8.60;99.90;;;;;;5076546;28;20658;-71
2022/11/04 08:22:25;;;;;;;8.30;4.03;;;8.70;99.90;;;;;;5078122;28;20068;-65
2022/11/04 08:24:58;;;;;;;5.68;2.42;;;8.80;99.90;;;;;;5057920;28;20154;-70
2022/11/04 08:27:25;;;;;;;7.47;3.35;;;8.90;99.90;;;;;;5076532;28;20215;-70
2022/11/04 08:29:52;;;;;;;9.65;2.05;;;8.90;99.90;;;;;;5080470;28;20157;-64
2022/11/04 08:32:19;;;;;;;9.63;2.78;;;9.00;99.90;;;;;;5077063;28;20056;-68
2022/11/04 08:34:46;;;;;;;6.80;2.30;;;9.10;99.90;;;;;;5079973;28;20452;-71
2022/11/04 08:37:14;;;;;;;4.28;2.45;;;9.10;99.90;;;;;;5078806;28;20919;-66
2022/11/04 08:39:42;;;;;;;9.18;2.33;;;9.20;99.90;;;;;;5082450;28;20063;-69
2022/11/04 08:42:09;;;;;;;14.65;3.53;;;9.20;99.90;;;;;;5079448;28;20048;-69
2022/11/04 08:44:38;;;;;;;5.75;2.33;;;9.30;99.90;;;;;;5080782;28;20162;-70
2022/11/04 08:47:05;;;;;;;9.02;2.63;;;9.30;99.90;;;;;;5082010;28;20054;-65
2022/11/04 08:49:37;;;;;;;4.32;2.15;;;9.40;99.90;;;;;;5084010;28;20048;-68
2022/11/04 08:52:04;;;;;;;7.25;2.72;;;9.40;99.90;;;;;;5079452;28;20055;-70
2022/11/04 08:54:31;;;;;;;7.50;3.20;;;9.40;99.90;;;;;;5082777;28;20127;-68
2022/11/04 08:56:58;;;;;;;5.53;3.08;;;9.40;99.90;;;;;;5080089;28;20044;-71
2022/11/04 08:59:25;;;;;;;6.30;2.47;;;9.50;99.90;;;;;;5082673;28;20032;-66
2022/11/04 09:01:52;;;;;;;9.88;2.78;;;9.50;99.90;;;;;;5082737;28;20071;-66
2022/11/04 09:04:20;;;;;;;8.38;2.53;;;9.50;99.90;;;;;;5080476;28;20086;-73
2022/11/04 09:06:47;;;;;;;9.65;2.50;;;9.60;99.90;;;;;;5079124;28;20076;-69
2022/11/04 09:09:16;;;;;;;6.10;2.67;;;9.60;99.90;;;;;;5062288;28;20052;-70
2022/11/04 09:11:44;;;;;;;8.73;2.72;;;9.60;99.90;;;;;;5083044;28;20052;-66
2022/11/04 09:14:11;;;;;;;7.47;2.17;;;9.70;99.90;;;;;;5079730;28;20055;-68
2022/11/04 09:16:40;;;;;;;7.20;1.88;;;9.70;99.90;;;;;;5083140;28;20551;-67
2022/11/04 09:19:07;;;;;;;9.73;2.05;;;9.70;99.90;;;;;;5059780;28;20040;-66
2022/11/04 09:21:34;;;;;;;3.40;2.33;;;9.80;99.90;;;;;;5075929;28;20757;-69
2022/11/04 09:24:01;;;;;;;10.60;3.30;;;9.80;99.90;;;;;;5079695;28;20174;-66
2022/11/04 09:26:28;;;;;;;13.63;2.60;;;9.80;99.90;;;;;;5064551;28;20057;-72
2022/11/04 09:28:57;;;;;;;9.57;2.08;;;9.90;99.90;;;;;;5064262;28;20442;-64
2022/11/04 09:31:27;;;;;;;2.83;1.70;;;9.90;99.90;;;;;;5045790;28;20055;-75
2022/11/04 09:33:54;;;;;;;8.48;1.88;;;9.90;99.90;;;;;;5060871;28;20058;-65
2022/11/04 09:36:22;;;;;;;9.25;2.33;;;9.90;99.90;;;;;;5064547;28;20512;-68
2022/11/04 09:38:49;;;;;;;8.73;3.28;;;10.00;99.90;;;;;;5065294;28;20156;-73
2022/11/04 09:41:19;;;;;;;13.93;1.85;;;10.00;99.90;;;;;;5065723;28;20153;-69
2022/11/04 09:44:17;;;;;;;6.05;1.95;;;10.00;99.90;;;;;;5063926;28;20094;-67
2022/11/04 09:46:48;;;;;;;9.77;4.18;;;10.00;99.90;;;;;;5061918;28;20393;-69
2022/11/04 09:49:15;;;;;;;7.35;2.25;;;10.00;99.90;;;;;;5060032;28;20080;-67
2022/11/04 09:51:45;;;;;;;7.53;2.33;;;10.00;99.90;;;;;;5062364;28;20044;-69
2022/11/04 09:54:31;;;;;;;6.25;2.22;;;10.00;99.90;;;;;;5060258;28;20049;-66
2022/11/04 09:57:00;;;;;;;17.05;4.18;;;10.00;99.90;;;;;;5066027;28;20759;-66
2022/11/04 09:59:30;;;;;;;5.80;2.28;;;10.10;99.90;;;;;;5063539;28;20139;-67
2022/11/04 10:02:10;;;;;;;12.32;3.10;;;10.10;99.90;;;;;;5064980;28;20091;-67
2022/11/04 10:04:38;;;;;;;12.85;2.70;;;10.10;99.90;;;;;;5063531;28;20054;-65
2022/11/04 10:07:13;;;;;;;11.95;6.70;;;10.10;99.90;;;;;;5061706;28;20071;-67
2022/11/04 10:09:43;;;;;;;8.43;5.10;;;10.20;99.90;;;;;;5063785;28;20055;-72
2022/11/04 10:12:29;;;;;;;5.72;3.15;;;10.10;99.90;;;;;;5059448;28;20045;-67
2022/11/04 10:15:07;;;;;;;13.93;8.88;;;10.20;99.90;;;;;;5067109;28;20463;-73
2022/11/04 10:17:55;;;;;;;6.75;6.13;;;10.20;99.90;;;;;;5064820;28;20147;-65
2022/11/04 10:20:58;;;;;;;14.43;8.45;;;10.20;99.90;;;;;;5059316;28;20098;-71
2022/11/04 10:23:57;;;;;;;7.78;4.88;;;10.20;99.90;;;;;;5033959;28;20438;-71
2022/11/04 10:26:41;;;;;;;11.30;6.32;;;10.20;99.90;;;;;;5074813;28;20054;-67
2022/11/04 10:29:21;;;;;;;8.32;5.03;;;10.20;99.90;;;;;;5076384;28;20051;-69
2022/11/04 10:31:52;;;;;;;6.43;5.68;;;10.20;99.90;;;;;;5078840;28;20167;-71
2022/11/04 10:34:30;;;;;;;10.93;4.72;;;10.20;99.90;;;;;;5074625;28;20184;-67
2022/11/04 10:36:57;;;;;;;9.15;4.57;;;10.20;99.90;;;;;;5078876;28;20055;-67
2022/11/04 10:39:32;;;;;;;4.47;3.22;;;10.20;99.90;;;;;;5074498;28;20071;-70
2022/11/04 10:41:59;;;;;;;6.20;4.15;;;10.20;99.90;;;;;;5075907;28;20387;-68
2022/11/04 10:44:32;;;;;;;13.25;4.60;;;10.20;99.90;;;;;;5078027;28;20044;-69
2022/11/04 10:47:16;;;;;;;9.98;4.88;;;10.20;99.90;;;;;;5074599;28;20076;-67
2022/11/04 10:49:48;;;;;;;17.13;6.93;;;10.20;99.90;;;;;;5076968;28;20055;-69
2022/11/04 10:52:36;;;;;;;10.70;5.03;;;10.30;99.90;;;;;;5074120;28;20473;-69
2022/11/04 10:55:26;;;;;;;9.80;4.57;;;10.20;99.90;;;;;;5075432;28;21596;-67
2022/11/04 10:57:58;;;;;;;10.73;7.05;;;10.20;99.90;;;;;;5077171;28;20076;-73
2022/11/04 11:00:37;;;;;;;5.20;4.28;;;10.20;99.90;;;;;;5078862;28;20051;-68
2022/11/04 11:03:26;;;;;;;7.80;5.63;;;10.30;99.90;;;;;;5075541;28;20040;-69
2022/11/04 11:06:09;;;;;;;18.95;4.80;;;10.30;99.90;;;;;;5074616;28;20473;-67
2022/11/04 11:08:37;;;;;;;15.20;6.22;;;10.30;99.90;;;;;;5071179;28;20135;-74
2022/11/04 11:11:07;;;;;;;12.05;5.43;;;10.30;99.90;;;;;;5080470;28;20048;-65
2022/11/04 11:13:38;;;;;;;13.32;4.22;;;10.30;99.90;;;;;;5075975;28;20048;-68
2022/11/04 11:16:08;;;;;;;12.82;5.32;;;10.30;99.90;;;;;;5073070;28;20143;-69
2022/11/04 11:18:37;;;;;;;7.93;5.18;;;10.30;99.90;;;;;;5078732;28;20165;-65
2022/11/04 11:21:12;;;;;;;13.40;4.88;;;10.30;99.90;;;;;;5076342;28;20113;-69
2022/11/04 11:23:46;;;;;;;7.97;3.90;;;10.30;99.90;;;;;;5056934;28;20460;-66
2022/11/04 11:26:19;;;;;;;13.55;8.32;;;10.30;99.90;;;;;;5073682;28;20125;-70
2022/11/04 11:28:55;;;;;;;11.82;6.97;;;10.30;99.90;;;;;;5075582;28;20078;-68
2022/11/04 11:31:33;;;;;;;9.05;4.47;;;10.30;99.90;;;;;;5079274;28;20055;-65
2022/11/04 11:34:05;;;;;;;13.05;5.80;;;10.40;99.90;;;;;;5077272;28;20486;-67
2022/11/04 11:36:36;;;;;;;7.65;5.35;;;10.40;99.90;;;;;;5078478;28;20151;-70
2022/11/04 11:39:16;;;;;;;11.07;6.13;;;10.40;99.90;;;;;;5079362;28;20046;-69
2022/11/04 11:42:02;;;;;;;10.57;6.15;;;10.40;99.90;;;;;;5079967;28;20048;-69
2022/11/04 11:44:46;;;;;;;11.68;8.60;;;10.40;99.90;;;;;;5053625;28;20048;-68
2022/11/04 11:47:19;;;;;;;12.60;7.15;;;10.40;99.90;;;;;;5079329;28;20048;-71
2022/11/04 11:50:13;;;;;;;9.07;3.75;;;10.50;99.90;;;;;;5080519;28;20502;-66
2022/11/04 11:52:41;;;;;;;6.82;4.82;;;10.40;99.90;;;;;;5074627;28;20473;-66
2022/11/04 11:55:28;;;;;;;7.80;5.10;;;10.40;99.90;;;;;;5077194;28;20047;-69
2022/11/04 11:58:18;;;;;;;8.38;4.57;;;10.40;99.90;;;;;;5076722;28;21384;-63
2022/11/04 12:01:14;;;;;;;11.50;6.80;;;10.40;99.90;;;;;;5076490;28;20047;-64
2022/11/04 12:03:51;;;;;;;9.75;4.20;;;10.30;99.90;;;;;;5075754;28;20070;-70
2022/11/04 12:07:05;;;;;;;7.63;6.68;;;10.30;99.90;;;;;;5074003;28;20114;-68
2022/11/04 12:10:27;;;;;;;12.80;7.45;;;10.40;99.90;;;;;;5076570;28;20056;-67
2022/11/04 12:13:17;;;;;;;8.25;6.40;;;10.40;99.90;;;;;;5075864;28;20086;-67
2022/11/04 12:16:08;;;;;;;7.55;6.55;;;10.30;99.90;;;;;;5075998;28;20406;-66
2022/11/04 12:18:56;;;;;;;9.70;6.30;;;10.30;99.90;;;;;;5077869;28;20058;-69
2022/11/04 12:21:32;;;;;;;6.88;6.05;;;10.30;99.90;;;;;;5077711;28;20138;-67
2022/11/04 12:24:06;;;;;;;9.15;6.78;;;10.30;99.90;;;;;;5075039;28;20048;-66
2022/11/04 12:26:45;;;;;;;15.35;4.35;;;10.30;99.90;;;;;;5081965;28;20044;-66
2022/11/04 12:29:26;;;;;;;7.15;5.47;;;10.20;99.90;;;;;;5076619;28;20044;-70
2022/11/04 12:32:18;;;;;;;12.98;4.05;;;10.20;99.90;;;;;;5073036;28;20052;-66
2022/11/04 12:35:20;;;;;;;11.95;7.72;;;10.20;99.90;;;;;;5074546;28;21503;-65
2022/11/04 12:38:03;;;;;;;9.30;6.53;;;10.20;99.90;;;;;;5076950;28;20052;-66
2022/11/04 12:40:40;;;;;;;13.30;9.18;;;10.20;99.90;;;;;;5075605;28;20050;-68
2022/11/04 12:43:13;;;;;;;8.18;6.03;;;10.20;99.90;;;;;;5076895;28;20641;-67
2022/11/04 12:45:49;;;;;;;10.38;5.00;;;10.20;99.90;;;;;;5076772;28;20861;-66
2022/11/04 12:48:44;;;;;;;6.88;5.18;;;10.10;99.90;;;;;;5075956;28;20162;-68
2022/11/04 12:51:25;;;;;;;9.68;6.43;;;10.20;99.90;;;;;;5076964;28;20958;-72
2022/11/04 12:54:13;;;;;;;13.55;7.93;;;10.20;99.90;;;;;;5076212;28;20040;-67
2022/11/04 12:56:40;;;;;;;6.93;5.88;;;10.10;99.90;;;;;;5073282;28;20425;-66
2022/11/04 12:59:22;;;;;;;12.00;10.25;;;10.20;99.90;;;;;;5077633;28;20112;-68
2022/11/04 13:02:00;;;;;;;7.45;6.18;;;10.10;99.90;;;;;;5079285;28;20524;-65
2022/11/04 13:04:42;;;;;;;12.88;4.80;;;10.10;99.90;;;;;;5074944;28;20048;-65
2022/11/04 13:07:17;;;;;;;9.15;5.32;;;10.10;99.90;;;;;;5077123;28;20046;-71
2022/11/04 13:09:52;;;;;;;9.93;7.70;;;10.10;99.90;;;;;;5075650;28;20044;-68
2022/11/04 13:12:23;;;;;;;9.95;5.72;;;10.10;99.90;;;;;;5072124;28;20494;-66
2022/11/04 13:14:55;;;;;;;11.50;5.15;;;10.10;99.90;;;;;;5078965;28;20131;-66
2022/11/04 13:17:30;;;;;;;5.38;3.30;;;10.10;99.90;;;;;;5081089;28;20106;-67
2022/11/04 13:20:10;;;;;;;11.52;5.60;;;10.10;99.90;;;;;;5076852;28;20040;-68
2022/11/04 13:22:38;;;;;;;9.23;4.55;;;10.10;99.90;;;;;;5077663;28;20048;-65
2022/11/04 13:25:32;;;;;;;8.82;6.30;;;10.20;99.90;;;;;;5076618;28;20059;-68
2022/11/04 13:28:01;;;;;;;10.35;9.18;;;10.10;99.90;;;;;;5064440;28;20182;-69
2022/11/04 13:30:46;;;;;;;10.35;5.07;;;10.10;99.90;;;;;;5064461;28;20738;-69
2022/11/04 13:33:24;;;;;;;6.32;5.22;;;10.10;99.90;;;;;;5064627;28;20054;-69
2022/11/04 13:36:01;;;;;;;10.50;5.07;;;10.10;99.90;;;;;;5062156;28;20139;-65
2022/11/04 13:38:35;;;;;;;8.38;5.85;;;10.10;99.90;;;;;;5063553;28;20056;-69
2022/11/04 13:41:05;;;;;;;8.50;3.47;;;10.10;99.90;;;;;;5062956;28;20056;-67
2022/11/04 13:43:41;;;;;;;4.38;3.35;;;10.10;99.90;;;;;;5061720;28;20499;-70
2022/11/04 13:46:11;;;;;;;5.22;2.95;;;10.00;99.90;;;;;;5062687;28;20183;-68
2022/11/04 13:48:52;;;;;;;4.72;2.17;;;10.00;99.90;;;;;;5061430;28;20083;-68